sensor_id;sensor_type;location;lat;lon;timestamp;pressure;altitude;pressure_sealevel;temperature;humidity
79347;BME280;68815;48.810;44.482;2023-06-26T00:00:50;100247;;;15.8;65.7
79347;BME280;68815;48.810;44.482;2023-06-26T00:03:51;100251;;;15.8;66
79347;BME280;68815;48.810;44.482;2023-06-26T00:06:52;100253;;;15.6;66.7
79347;BME280;68815;48.810;44.482;2023-06-26T00:09:54;100249;;;16.2;65.5
79347;BME280;68815;48.810;44.482;2023-06-26T00:12:55;100250;;;16.3;64.7
79347;BME280;68815;48.810;44.482;2023-06-26T00:15:57;100260;;;16.3;64.7
79347;BME280;68815;48.810;44.482;2023-06-26T00:18:59;100263;;;16.1;65.3
79347;BME280;68815;48.810;44.482;2023-06-26T00:22:00;100264;;;16;65.9
79347;BME280;68815;48.810;44.482;2023-06-26T00:25:02;100268;;;16;66.1
79347;BME280;68815;48.810;44.482;2023-06-26T00:28:05;100263;;;16;65.3
79347;BME280;68815;48.810;44.482;2023-06-26T00:31:06;100252;;;16.1;64.4
79347;BME280;68815;48.810;44.482;2023-06-26T00:34:08;100255;;;16.1;64.4
79347;BME280;68815;48.810;44.482;2023-06-26T00:37:09;100261;;;16;64.7
79347;BME280;68815;48.810;44.482;2023-06-26T00:40:12;100262;;;16;65
79347;BME280;68815;48.810;44.482;2023-06-26T00:43:14;100258;;;15.9;65.6
79347;BME280;68815;48.810;44.482;2023-06-26T00:46:15;100256;;;15.9;65.2
79347;BME280;68815;48.810;44.482;2023-06-26T00:49:17;100249;;;15.9;65.2
79347;BME280;68815;48.810;44.482;2023-06-26T00:52:19;100246;;;15.8;65.6
79347;BME280;68815;48.810;44.482;2023-06-26T00:55:20;100241;;;15.8;65.8
79347;BME280;68815;48.810;44.482;2023-06-26T00:58:23;100239;;;15.8;65.8
79347;BME280;68815;48.810;44.482;2023-06-26T01:01:25;100245;;;15.8;66.1
79347;BME280;68815;48.810;44.482;2023-06-26T01:04:26;100247;;;15.9;65.9
79347;BME280;68815;48.810;44.482;2023-06-26T01:07:28;100243;;;15.9;66.5
79347;BME280;68815;48.810;44.482;2023-06-26T01:10:30;100249;;;15.9;66.1
79347;BME280;68815;48.810;44.482;2023-06-26T01:13:32;100257;;;15.6;67.5
79347;BME280;68815;48.810;44.482;2023-06-26T01:16:35;100258;;;15.8;66.6
79347;BME280;68815;48.810;44.482;2023-06-26T01:19:37;100249;;;16.1;66
79347;BME280;68815;48.810;44.482;2023-06-26T01:22:45;100244;;;16.5;64.6
79347;BME280;68815;48.810;44.482;2023-06-26T01:25:56;100243;;;16.4;65.4
79347;BME280;68815;48.810;44.482;2023-06-26T01:29:04;100246;;;16.5;65.2
79347;BME280;68815;48.810;44.482;2023-06-26T01:32:08;100248;;;16.4;65.9
79347;BME280;68815;48.810;44.482;2023-06-26T01:35:11;100254;;;16.3;66.6
79347;BME280;68815;48.810;44.482;2023-06-26T01:38:13;100260;;;16.6;66.1
79347;BME280;68815;48.810;44.482;2023-06-26T01:41:15;100264;;;16.8;65.9
79347;BME280;68815;48.810;44.482;2023-06-26T01:44:23;100257;;;16.8;65.6
79347;BME280;68815;48.810;44.482;2023-06-26T01:47:28;100250;;;17.3;63.5
79347;BME280;68815;48.810;44.482;2023-06-26T01:50:31;100255;;;17.5;63.3
79347;BME280;68815;48.810;44.482;2023-06-26T01:53:38;100255;;;17.6;62.9
79347;BME280;68815;48.810;44.482;2023-06-26T01:56:45;100259;;;17.8;62.5
79347;BME280;68815;48.810;44.482;2023-06-26T01:59:47;100264;;;17.9;62.3
79347;BME280;68815;48.810;44.482;2023-06-26T02:02:48;100265;;;18;62
79347;BME280;68815;48.810;44.482;2023-06-26T02:05:50;100260;;;18.1;61.9
79347;BME280;68815;48.810;44.482;2023-06-26T02:08:51;100266;;;18.3;61.8
79347;BME280;68815;48.810;44.482;2023-06-26T02:11:53;100258;;;18.5;61.6
79347;BME280;68815;48.810;44.482;2023-06-26T02:14:54;100261;;;18.7;60.9
79347;BME280;68815;48.810;44.482;2023-06-26T02:17:56;100258;;;18.9;60.7
79347;BME280;68815;48.810;44.482;2023-06-26T02:20:58;100266;;;19;61
79347;BME280;68815;48.810;44.482;2023-06-26T02:23:59;100260;;;18.6;62.2
79347;BME280;68815;48.810;44.482;2023-06-26T02:27:01;100251;;;19.1;61.2
79347;BME280;68815;48.810;44.482;2023-06-26T02:30:02;100245;;;19.4;59.8
79347;BME280;68815;48.810;44.482;2023-06-26T02:33:06;100243;;;18.8;61.5
79347;BME280;68815;48.810;44.482;2023-06-26T02:36:08;100246;;;18.3;63.4
79347;BME280;68815;48.810;44.482;2023-06-26T02:39:09;100245;;;18.3;64.1
79347;BME280;68815;48.810;44.482;2023-06-26T02:42:11;100240;;;18.5;63.6
79347;BME280;68815;48.810;44.482;2023-06-26T02:45:13;100249;;;18.9;62
79347;BME280;68815;48.810;44.482;2023-06-26T02:48:14;100244;;;19.4;59.4
79347;BME280;68815;48.810;44.482;2023-06-26T02:51:15;100245;;;19.6;58.7
79347;BME280;68815;48.810;44.482;2023-06-26T02:54:17;100252;;;19.6;59
79347;BME280;68815;48.810;44.482;2023-06-26T02:57:19;100258;;;19.5;57.5
79347;BME280;68815;48.810;44.482;2023-06-26T03:00:20;100259;;;19.6;57.1
79347;BME280;68815;48.810;44.482;2023-06-26T03:03:21;100251;;;19.4;57.2
79347;BME280;68815;48.810;44.482;2023-06-26T03:06:23;100248;;;19.2;56.5
79347;BME280;68815;48.810;44.482;2023-06-26T03:09:25;100251;;;19.3;56.1
79347;BME280;68815;48.810;44.482;2023-06-26T03:12:26;100247;;;19.2;55.3
79347;BME280;68815;48.810;44.482;2023-06-26T03:15:28;100254;;;19.4;54
79347;BME280;68815;48.810;44.482;2023-06-26T03:18:29;100250;;;19.2;54.3
79347;BME280;68815;48.810;44.482;2023-06-26T03:21:31;100249;;;19.8;53.8
79347;BME280;68815;48.810;44.482;2023-06-26T03:24:33;100252;;;19.6;53.5
79347;BME280;68815;48.810;44.482;2023-06-26T03:27:34;100255;;;19.5;53.5
79347;BME280;68815;48.810;44.482;2023-06-26T03:30:36;100250;;;19.7;52.5
79347;BME280;68815;48.810;44.482;2023-06-26T03:33:37;100248;;;19.8;52.3
79347;BME280;68815;48.810;44.482;2023-06-26T03:36:39;100246;;;19.6;53.1
79347;BME280;68815;48.810;44.482;2023-06-26T03:39:40;100247;;;19.8;53
79347;BME280;68815;48.810;44.482;2023-06-26T03:42:42;100247;;;20.2;51.3
79347;BME280;68815;48.810;44.482;2023-06-26T03:45:44;100240;;;20.2;50.1
79347;BME280;68815;48.810;44.482;2023-06-26T03:48:45;100246;;;19.9;51.1
79347;BME280;68815;48.810;44.482;2023-06-26T03:51:47;100235;;;20.7;50.4
79347;BME280;68815;48.810;44.482;2023-06-26T03:54:48;100249;;;20.3;49.7
79347;BME280;68815;48.810;44.482;2023-06-26T03:57:50;100245;;;21.3;49.2
79347;BME280;68815;48.810;44.482;2023-06-26T04:00:51;100248;;;20.6;48.5
79347;BME280;68815;48.810;44.482;2023-06-26T04:03:53;100244;;;20.5;49.4
79347;BME280;68815;48.810;44.482;2023-06-26T04:06:54;100243;;;21.2;47.1
79347;BME280;68815;48.810;44.482;2023-06-26T04:09:56;100258;;;21.1;45.9
79347;BME280;68815;48.810;44.482;2023-06-26T04:12:57;100259;;;20.9;46.1
79347;BME280;68815;48.810;44.482;2023-06-26T04:15:59;100259;;;21.4;45.8
79347;BME280;68815;48.810;44.482;2023-06-26T04:19:00;100253;;;21.4;46.1
79347;BME280;68815;48.810;44.482;2023-06-26T04:22:01;100248;;;22.3;45.4
79347;BME280;68815;48.810;44.482;2023-06-26T04:25:03;100242;;;21.9;43.4
79347;BME280;68815;48.810;44.482;2023-06-26T04:28:06;100245;;;21.9;45.1
79347;BME280;68815;48.810;44.482;2023-06-26T04:31:08;100242;;;22.8;43.9
79347;BME280;68815;48.810;44.482;2023-06-26T04:34:09;100250;;;21.9;43.8
79347;BME280;68815;48.810;44.482;2023-06-26T04:37:10;100251;;;21.6;43.6
79347;BME280;68815;48.810;44.482;2023-06-26T04:40:12;100249;;;21.1;44.1
79347;BME280;68815;48.810;44.482;2023-06-26T04:43:13;100237;;;21.4;44.6
79347;BME280;68815;48.810;44.482;2023-06-26T04:46:15;100232;;;21.2;45.2
79347;BME280;68815;48.810;44.482;2023-06-26T04:49:16;100231;;;21.6;43.5
79347;BME280;68815;48.810;44.482;2023-06-26T04:52:18;100225;;;21.1;44.5
79347;BME280;68815;48.810;44.482;2023-06-26T04:55:19;100234;;;21.5;44
79347;BME280;68815;48.810;44.482;2023-06-26T04:58:21;100231;;;21.5;44.2
79347;BME280;68815;48.810;44.482;2023-06-26T05:01:23;100233;;;21.3;45.1
79347;BME280;68815;48.810;44.482;2023-06-26T05:04:25;100229;;;22.3;42.9
79347;BME280;68815;48.810;44.482;2023-06-26T05:07:26;100216;;;22;43.5
79347;BME280;68815;48.810;44.482;2023-06-26T05:10:27;100215;;;21.7;44.2
79347;BME280;68815;48.810;44.482;2023-06-26T05:13:29;100225;;;22.3;42.8
79347;BME280;68815;48.810;44.482;2023-06-26T05:16:30;100224;;;22.5;42.8
79347;BME280;68815;48.810;44.482;2023-06-26T05:19:31;100223;;;22.1;42.5
79347;BME280;68815;48.810;44.482;2023-06-26T05:22:33;100226;;;22.3;41.8
79347;BME280;68815;48.810;44.482;2023-06-26T05:25:35;100225;;;22.3;42
79347;BME280;68815;48.810;44.482;2023-06-26T05:28:37;100221;;;22.1;41.5
79347;BME280;68815;48.810;44.482;2023-06-26T05:31:41;100224;;;22.1;40
79347;BME280;68815;48.810;44.482;2023-06-26T05:34:43;100231;;;21.5;41
79347;BME280;68815;48.810;44.482;2023-06-26T05:37:48;100218;;;21.5;42.6
79347;BME280;68815;48.810;44.482;2023-06-26T05:40:49;100228;;;21.1;41.9
79347;BME280;68815;48.810;44.482;2023-06-26T05:43:51;100221;;;21.2;42.1
79347;BME280;68815;48.810;44.482;2023-06-26T05:46:52;100220;;;21.1;42.7
79347;BME280;68815;48.810;44.482;2023-06-26T05:49:54;100227;;;20.9;43.3
79347;BME280;68815;48.810;44.482;2023-06-26T05:52:56;100226;;;21.2;43.1
79347;BME280;68815;48.810;44.482;2023-06-26T05:55:58;100223;;;21.1;43.1
79347;BME280;68815;48.810;44.482;2023-06-26T05:59:00;100210;;;21.2;43.3
79347;BME280;68815;48.810;44.482;2023-06-26T06:02:03;100200;;;21.6;43.6
79347;BME280;68815;48.810;44.482;2023-06-26T06:05:05;100199;;;21.9;40.8
79347;BME280;68815;48.810;44.482;2023-06-26T06:08:07;100197;;;22;41.1
79347;BME280;68815;48.810;44.482;2023-06-26T06:11:08;100187;;;22.8;41.2
79347;BME280;68815;48.810;44.482;2023-06-26T06:14:10;100176;;;22.8;39.3
79347;BME280;68815;48.810;44.482;2023-06-26T06:17:11;100187;;;22.1;40.3
79347;BME280;68815;48.810;44.482;2023-06-26T06:20:12;100176;;;22.1;40.4
79347;BME280;68815;48.810;44.482;2023-06-26T06:23:14;100180;;;22.1;40.5
79347;BME280;68815;48.810;44.482;2023-06-26T06:26:15;100166;;;22.2;40.3
79347;BME280;68815;48.810;44.482;2023-06-26T06:29:16;100182;;;22.1;39.3
79347;BME280;68815;48.810;44.482;2023-06-26T06:32:18;100182;;;21.5;40.5
79347;BME280;68815;48.810;44.482;2023-06-26T06:35:20;100180;;;22;40.6
79347;BME280;68815;48.810;44.482;2023-06-26T06:38:21;100172;;;22.3;40.3
79347;BME280;68815;48.810;44.482;2023-06-26T06:41:23;100172;;;22.4;40.5
79347;BME280;68815;48.810;44.482;2023-06-26T06:44:25;100195;;;22;39.4
79347;BME280;68815;48.810;44.482;2023-06-26T06:47:26;100176;;;22.3;39.6
79347;BME280;68815;48.810;44.482;2023-06-26T06:50:27;100176;;;22.4;39.9
79347;BME280;68815;48.810;44.482;2023-06-26T06:53:29;100180;;;21.8;39.5
79347;BME280;68815;48.810;44.482;2023-06-26T06:56:30;100169;;;22.1;39.3
79347;BME280;68815;48.810;44.482;2023-06-26T06:59:32;100162;;;22.6;39.1
79347;BME280;68815;48.810;44.482;2023-06-26T07:02:34;100159;;;22.4;38.8
79347;BME280;68815;48.810;44.482;2023-06-26T07:05:35;100169;;;22.6;39.2
79347;BME280;68815;48.810;44.482;2023-06-26T07:08:37;100168;;;22.7;38.1
79347;BME280;68815;48.810;44.482;2023-06-26T07:11:39;100176;;;22.5;38.3
79347;BME280;68815;48.810;44.482;2023-06-26T07:14:40;100164;;;22;39.7
79347;BME280;68815;48.810;44.482;2023-06-26T07:17:41;100168;;;22;38.7
79347;BME280;68815;48.810;44.482;2023-06-26T07:20:43;100154;;;22.3;38.8
79347;BME280;68815;48.810;44.482;2023-06-26T07:23:44;100154;;;22.3;39
79347;BME280;68815;48.810;44.482;2023-06-26T07:26:45;100172;;;22.2;39.4
79347;BME280;68815;48.810;44.482;2023-06-26T07:29:47;100161;;;22.3;39.1
79347;BME280;68815;48.810;44.482;2023-06-26T07:32:48;100156;;;22.4;38.4
79347;BME280;68815;48.810;44.482;2023-06-26T07:35:50;100152;;;22.9;38.6
79347;BME280;68815;48.810;44.482;2023-06-26T07:38:51;100155;;;22.4;39.8
79347;BME280;68815;48.810;44.482;2023-06-26T07:41:52;100154;;;22.7;39.3
79347;BME280;68815;48.810;44.482;2023-06-26T07:44:54;100153;;;22.7;39.2
79347;BME280;68815;48.810;44.482;2023-06-26T07:47:55;100158;;;22.4;39.5
79347;BME280;68815;48.810;44.482;2023-06-26T07:50:57;100159;;;22.6;39.5
79347;BME280;68815;48.810;44.482;2023-06-26T07:53:58;100145;;;22.3;39.7
79347;BME280;68815;48.810;44.482;2023-06-26T07:57:03;100148;;;22.4;39.4
79347;BME280;68815;48.810;44.482;2023-06-26T08:00:05;100154;;;22.3;39
79347;BME280;68815;48.810;44.482;2023-06-26T08:03:07;100155;;;22.2;38.6
79347;BME280;68815;48.810;44.482;2023-06-26T08:06:09;100146;;;22.6;38.6
79347;BME280;68815;48.810;44.482;2023-06-26T08:09:10;100151;;;22.3;38.2
79347;BME280;68815;48.810;44.482;2023-06-26T08:12:12;100142;;;22.2;38.5
79347;BME280;68815;48.810;44.482;2023-06-26T08:15:13;100138;;;22.3;38.7
79347;BME280;68815;48.810;44.482;2023-06-26T08:18:14;100146;;;21.8;39.6
79347;BME280;68815;48.810;44.482;2023-06-26T08:21:16;100135;;;22.1;39.8
79347;BME280;68815;48.810;44.482;2023-06-26T08:24:17;100136;;;22.1;38.6
79347;BME280;68815;48.810;44.482;2023-06-26T08:27:19;100123;;;22.4;38.5
79347;BME280;68815;48.810;44.482;2023-06-26T08:30:20;100143;;;22.3;38.4
79347;BME280;68815;48.810;44.482;2023-06-26T08:33:22;100137;;;22.2;38
79347;BME280;68815;48.810;44.482;2023-06-26T08:36:23;100127;;;22.5;38.3
79347;BME280;68815;48.810;44.482;2023-06-26T08:39:24;100137;;;22.5;38.1
79347;BME280;68815;48.810;44.482;2023-06-26T08:42:26;100135;;;22.6;38.3
79347;BME280;68815;48.810;44.482;2023-06-26T08:45:27;100148;;;22.5;38
79347;BME280;68815;48.810;44.482;2023-06-26T08:48:32;100139;;;22.5;37.8
79347;BME280;68815;48.810;44.482;2023-06-26T08:51:35;100132;;;22.7;38.4
79347;BME280;68815;48.810;44.482;2023-06-26T08:54:43;100140;;;22.8;38.1
79347;BME280;68815;48.810;44.482;2023-06-26T08:57:47;100121;;;22.7;38
79347;BME280;68815;48.810;44.482;2023-06-26T09:00:49;100122;;;22.8;38.5
79347;BME280;68815;48.810;44.482;2023-06-26T09:03:50;100121;;;22.7;38.1
79347;BME280;68815;48.810;44.482;2023-06-26T09:06:52;100111;;;22.6;38.4
79347;BME280;68815;48.810;44.482;2023-06-26T09:09:53;100114;;;22.8;38.3
79347;BME280;68815;48.810;44.482;2023-06-26T09:12:55;100101;;;22.8;38.9
79347;BME280;68815;48.810;44.482;2023-06-26T09:15:57;100104;;;22.8;39
79347;BME280;68815;48.810;44.482;2023-06-26T09:18:59;100114;;;22.8;38.4
79347;BME280;68815;48.810;44.482;2023-06-26T09:22:00;100112;;;22.8;39
79347;BME280;68815;48.810;44.482;2023-06-26T09:25:02;100103;;;22.8;39.2
79347;BME280;68815;48.810;44.482;2023-06-26T09:28:05;100114;;;22.9;38.3
79347;BME280;68815;48.810;44.482;2023-06-26T09:31:07;100100;;;22.9;39
79347;BME280;68815;48.810;44.482;2023-06-26T09:34:09;100101;;;22.9;38.1
79347;BME280;68815;48.810;44.482;2023-06-26T09:37:12;100088;;;22.6;38.7
79347;BME280;68815;48.810;44.482;2023-06-26T09:40:13;100078;;;23;39.6
79347;BME280;68815;48.810;44.482;2023-06-26T09:43:15;100087;;;23.1;37.9
79347;BME280;68815;48.810;44.482;2023-06-26T09:46:16;100085;;;23.1;37.7
79347;BME280;68815;48.810;44.482;2023-06-26T09:49:18;100093;;;23;37.3
79347;BME280;68815;48.810;44.482;2023-06-26T09:52:20;100078;;;23.1;37.1
79347;BME280;68815;48.810;44.482;2023-06-26T09:55:21;100086;;;23.1;37
79347;BME280;68815;48.810;44.482;2023-06-26T09:58:24;100081;;;23;37.2
79347;BME280;68815;48.810;44.482;2023-06-26T10:01:26;100089;;;23.2;36.2
79347;BME280;68815;48.810;44.482;2023-06-26T10:04:28;100070;;;23.4;36.5
79347;BME280;68815;48.810;44.482;2023-06-26T10:07:29;100065;;;23.3;37.1
79347;BME280;68815;48.810;44.482;2023-06-26T10:10:32;100061;;;23.3;37
79347;BME280;68815;48.810;44.482;2023-06-26T10:13:38;100061;;;23.1;37.1
79347;BME280;68815;48.810;44.482;2023-06-26T10:16:43;100055;;;23;36.6
79347;BME280;68815;48.810;44.482;2023-06-26T10:19:45;100062;;;23.4;35.4
79347;BME280;68815;48.810;44.482;2023-06-26T10:22:47;100063;;;23.3;35.3
79347;BME280;68815;48.810;44.482;2023-06-26T10:25:51;100050;;;23.4;36.4
79347;BME280;68815;48.810;44.482;2023-06-26T10:28:55;100042;;;23.4;36
79347;BME280;68815;48.810;44.482;2023-06-26T10:31:58;100049;;;23.7;35.1
79347;BME280;68815;48.810;44.482;2023-06-26T10:35:01;100048;;;23.7;34.2
79347;BME280;68815;48.810;44.482;2023-06-26T10:38:03;100064;;;23.7;33.9
79347;BME280;68815;48.810;44.482;2023-06-26T10:41:10;100041;;;23.7;35.5
79347;BME280;68815;48.810;44.482;2023-06-26T10:44:16;100054;;;24;35.5
79347;BME280;68815;48.810;44.482;2023-06-26T10:47:33;100037;;;23.8;34.3
79347;BME280;68815;48.810;44.482;2023-06-26T10:50:35;100051;;;23.7;34.4
79347;BME280;68815;48.810;44.482;2023-06-26T10:53:37;100046;;;23.7;34.2
79347;BME280;68815;48.810;44.482;2023-06-26T10:56:42;100049;;;23.9;34.5
79347;BME280;68815;48.810;44.482;2023-06-26T10:59:45;100033;;;23.8;34.1
79347;BME280;68815;48.810;44.482;2023-06-26T11:02:48;100032;;;23.8;35.7
79347;BME280;68815;48.810;44.482;2023-06-26T11:06:08;100055;;;23.7;34.7
79347;BME280;68815;48.810;44.482;2023-06-26T11:09:13;100037;;;23.7;34.9
79347;BME280;68815;48.810;44.482;2023-06-26T11:12:38;100042;;;23.7;34.8
79347;BME280;68815;48.810;44.482;2023-06-26T11:15:42;100039;;;23.8;35.2
79347;BME280;68815;48.810;44.482;2023-06-26T11:18:44;100036;;;23.8;34.7
79347;BME280;68815;48.810;44.482;2023-06-26T11:21:46;100038;;;23.9;34.4
79347;BME280;68815;48.810;44.482;2023-06-26T11:24:49;100030;;;23.9;34.8
79347;BME280;68815;48.810;44.482;2023-06-26T11:27:53;100023;;;23.9;33.9
79347;BME280;68815;48.810;44.482;2023-06-26T11:30:54;100027;;;24;33.7
79347;BME280;68815;48.810;44.482;2023-06-26T11:33:57;100011;;;24;33.2
79347;BME280;68815;48.810;44.482;2023-06-26T11:36:58;100008;;;24.1;33.8
79347;BME280;68815;48.810;44.482;2023-06-26T11:39:59;99998;;;24;33.4
79347;BME280;68815;48.810;44.482;2023-06-26T11:43:01;99995;;;24;34.1
79347;BME280;68815;48.810;44.482;2023-06-26T11:46:03;99993;;;24;33.4
79347;BME280;68815;48.810;44.482;2023-06-26T11:49:05;99985;;;24;33.6
79347;BME280;68815;48.810;44.482;2023-06-26T11:52:06;99970;;;24.1;33.1
79347;BME280;68815;48.810;44.482;2023-06-26T11:55:08;99980;;;24.1;32.4
79347;BME280;68815;48.810;44.482;2023-06-26T11:58:09;99970;;;24.1;32.5
79347;BME280;68815;48.810;44.482;2023-06-26T12:01:15;99970;;;24.1;32.4
79347;BME280;68815;48.810;44.482;2023-06-26T12:04:17;99966;;;24.1;31.8
79347;BME280;68815;48.810;44.482;2023-06-26T12:07:19;99967;;;24.2;31.1
79347;BME280;68815;48.810;44.482;2023-06-26T12:10:21;99968;;;24.2;31.6
79347;BME280;68815;48.810;44.482;2023-06-26T12:13:22;99967;;;24.1;32
79347;BME280;68815;48.810;44.482;2023-06-26T12:16:24;99959;;;24.2;32.3
79347;BME280;68815;48.810;44.482;2023-06-26T12:19:25;99969;;;24.1;32.3
79347;BME280;68815;48.810;44.482;2023-06-26T12:22:33;99965;;;24.1;32.5
79347;BME280;68815;48.810;44.482;2023-06-26T12:25:35;99967;;;24.1;31.1
79347;BME280;68815;48.810;44.482;2023-06-26T12:28:37;99978;;;24.2;31.7
79347;BME280;68815;48.810;44.482;2023-06-26T12:31:40;99981;;;24;31.5
79347;BME280;68815;48.810;44.482;2023-06-26T12:34:41;99968;;;24.1;32.3
79347;BME280;68815;48.810;44.482;2023-06-26T12:37:48;99973;;;24.3;31.4
79347;BME280;68815;48.810;44.482;2023-06-26T12:40:49;99977;;;24.4;31.9
79347;BME280;68815;48.810;44.482;2023-06-26T12:43:55;99968;;;24.5;32
79347;BME280;68815;48.810;44.482;2023-06-26T12:46:59;99965;;;24.5;32.2
79347;BME280;68815;48.810;44.482;2023-06-26T12:50:04;99955;;;24.6;31.2
79347;BME280;68815;48.810;44.482;2023-06-26T12:53:07;99964;;;24.3;29.1
79347;BME280;68815;48.810;44.482;2023-06-26T12:56:09;99971;;;24.3;30.5
79347;BME280;68815;48.810;44.482;2023-06-26T12:59:11;99965;;;24.3;30.5
79347;BME280;68815;48.810;44.482;2023-06-26T13:02:12;99969;;;24.4;31.2
79347;BME280;68815;48.810;44.482;2023-06-26T13:05:13;99967;;;24.5;31.9
79347;BME280;68815;48.810;44.482;2023-06-26T13:08:16;99975;;;24.6;31.7
79347;BME280;68815;48.810;44.482;2023-06-26T13:11:17;99965;;;24.4;31.6
79347;BME280;68815;48.810;44.482;2023-06-26T13:14:18;99970;;;24.6;32.2
79347;BME280;68815;48.810;44.482;2023-06-26T13:17:20;99969;;;24.7;31.2
79347;BME280;68815;48.810;44.482;2023-06-26T13:20:21;99974;;;24.7;30.4
79347;BME280;68815;48.810;44.482;2023-06-26T13:23:23;99967;;;24.9;31
79347;BME280;68815;48.810;44.482;2023-06-26T13:26:24;99969;;;24.8;30
79347;BME280;68815;48.810;44.482;2023-06-26T13:29:26;99963;;;24.7;29.8
79347;BME280;68815;48.810;44.482;2023-06-26T13:32:28;99955;;;24.8;29.1
79347;BME280;68815;48.810;44.482;2023-06-26T13:35:29;99947;;;24.8;29.3
79347;BME280;68815;48.810;44.482;2023-06-26T13:38:33;99952;;;24.8;29.4
79347;BME280;68815;48.810;44.482;2023-06-26T13:41:35;99950;;;24.9;29.3
79347;BME280;68815;48.810;44.482;2023-06-26T13:44:36;99943;;;24.9;29.4
79347;BME280;68815;48.810;44.482;2023-06-26T13:47:38;99940;;;24.7;29.6
79347;BME280;68815;48.810;44.482;2023-06-26T13:50:39;99941;;;24.7;29.8
79347;BME280;68815;48.810;44.482;2023-06-26T13:53:41;99933;;;24.7;30.5
79347;BME280;68815;48.810;44.482;2023-06-26T13:56:43;99938;;;24.8;30.1
79347;BME280;68815;48.810;44.482;2023-06-26T13:59:44;99937;;;24.7;29.8
79347;BME280;68815;48.810;44.482;2023-06-26T14:02:46;99934;;;24.6;29.5
79347;BME280;68815;48.810;44.482;2023-06-26T14:05:47;99928;;;24.6;29.5
79347;BME280;68815;48.810;44.482;2023-06-26T14:08:49;99926;;;24.6;29.2
79347;BME280;68815;48.810;44.482;2023-06-26T14:11:50;99928;;;24.6;29.5
79347;BME280;68815;48.810;44.482;2023-06-26T14:14:52;99933;;;24.6;29.3
79347;BME280;68815;48.810;44.482;2023-06-26T14:17:53;99941;;;24.6;29
79347;BME280;68815;48.810;44.482;2023-06-26T14:20:55;99940;;;24.5;29.4
79347;BME280;68815;48.810;44.482;2023-06-26T14:23:56;99935;;;24.5;29
79347;BME280;68815;48.810;44.482;2023-06-26T14:26:58;99938;;;24.4;29.1
79347;BME280;68815;48.810;44.482;2023-06-26T14:29:59;99941;;;24.4;29.3
79347;BME280;68815;48.810;44.482;2023-06-26T14:33:01;99933;;;24.4;29.9
79347;BME280;68815;48.810;44.482;2023-06-26T14:36:02;99930;;;24.4;29
79347;BME280;68815;48.810;44.482;2023-06-26T14:39:03;99923;;;24.4;29
79347;BME280;68815;48.810;44.482;2023-06-26T14:42:07;99922;;;24.4;29.3
79347;BME280;68815;48.810;44.482;2023-06-26T14:45:09;99921;;;24.4;29.3
79347;BME280;68815;48.810;44.482;2023-06-26T14:48:11;99927;;;24.4;29.6
79347;BME280;68815;48.810;44.482;2023-06-26T14:51:12;99932;;;24.5;29.3
79347;BME280;68815;48.810;44.482;2023-06-26T14:54:14;99936;;;24.5;29.2
79347;BME280;68815;48.810;44.482;2023-06-26T14:57:15;99931;;;24.5;28.8
79347;BME280;68815;48.810;44.482;2023-06-26T15:00:17;99927;;;24.4;29.3
79347;BME280;68815;48.810;44.482;2023-06-26T15:03:18;99928;;;24.4;29.3
79347;BME280;68815;48.810;44.482;2023-06-26T15:06:20;99928;;;24.4;29.8
79347;BME280;68815;48.810;44.482;2023-06-26T15:09:21;99938;;;24.4;30.3
79347;BME280;68815;48.810;44.482;2023-06-26T15:12:22;99939;;;24.4;30
79347;BME280;68815;48.810;44.482;2023-06-26T15:15:24;99926;;;24.3;30.6
79347;BME280;68815;48.810;44.482;2023-06-26T15:18:38;99924;;;24.3;29.1
79347;BME280;68815;48.810;44.482;2023-06-26T15:21:40;99908;;;24.3;29.6
79347;BME280;68815;48.810;44.482;2023-06-26T15:24:41;99904;;;24.3;29.8
79347;BME280;68815;48.810;44.482;2023-06-26T15:27:43;99904;;;24.3;30
79347;BME280;68815;48.810;44.482;2023-06-26T15:30:45;99900;;;24.2;29.5
79347;BME280;68815;48.810;44.482;2023-06-26T15:33:46;99895;;;24.2;29.9
79347;BME280;68815;48.810;44.482;2023-06-26T15:36:48;99889;;;24.2;30.1
79347;BME280;68815;48.810;44.482;2023-06-26T15:39:50;99884;;;24.2;30.1
79347;BME280;68815;48.810;44.482;2023-06-26T15:42:51;99880;;;24.2;30.1
79347;BME280;68815;48.810;44.482;2023-06-26T15:45:53;99880;;;24.1;30.3
79347;BME280;68815;48.810;44.482;2023-06-26T15:48:54;99868;;;24;29.9
79347;BME280;68815;48.810;44.482;2023-06-26T15:51:56;99871;;;24;30.4
79347;BME280;68815;48.810;44.482;2023-06-26T15:54:58;99858;;;24;30.6
79347;BME280;68815;48.810;44.482;2023-06-26T15:57:59;99858;;;24;30.2
79347;BME280;68815;48.810;44.482;2023-06-26T16:01:01;99858;;;23.9;30.4
79347;BME280;68815;48.810;44.482;2023-06-26T16:04:02;99856;;;23.8;30.9
79347;BME280;68815;48.810;44.482;2023-06-26T16:07:04;99849;;;23.7;30.8
79347;BME280;68815;48.810;44.482;2023-06-26T16:10:06;99843;;;23.7;30.6
79347;BME280;68815;48.810;44.482;2023-06-26T16:13:07;99847;;;23.6;30.9
79347;BME280;68815;48.810;44.482;2023-06-26T16:16:09;99857;;;23.6;31.4
79347;BME280;68815;48.810;44.482;2023-06-26T16:19:10;99848;;;23.5;31.5
79347;BME280;68815;48.810;44.482;2023-06-26T16:22:12;99846;;;23.5;31.8
79347;BME280;68815;48.810;44.482;2023-06-26T16:25:14;99859;;;23.4;32.1
79347;BME280;68815;48.810;44.482;2023-06-26T16:28:15;99859;;;23.4;32.2
79347;BME280;68815;48.810;44.482;2023-06-26T16:31:17;99850;;;23.4;32.3
79347;BME280;68815;48.810;44.482;2023-06-26T16:34:18;99857;;;23.3;32.5
79347;BME280;68815;48.810;44.482;2023-06-26T16:37:20;99871;;;23.3;32.9
79347;BME280;68815;48.810;44.482;2023-06-26T16:40:21;99866;;;23.2;32.7
79347;BME280;68815;48.810;44.482;2023-06-26T16:43:22;99860;;;23.2;33.3
79347;BME280;68815;48.810;44.482;2023-06-26T16:46:24;99859;;;23.1;33.4
79347;BME280;68815;48.810;44.482;2023-06-26T16:49:25;99849;;;23.1;33.6
79347;BME280;68815;48.810;44.482;2023-06-26T16:52:26;99855;;;23;34
79347;BME280;68815;48.810;44.482;2023-06-26T16:55:28;99856;;;23;34.2